Time;durP1;ratioP1;P1;durP2;ratioP2;P2;SDS_P1;SDS_P2;PMS_P1;PMS_P2;Temp;Humidity;BMP_temperature;BMP_pressure;BME280_temperature;BME280_humidity;BME280_pressure;Samples;Min_cycle;Max_cycle;Signal;HPM_P1;HPM_P2
2023/08/25 00:02:29;;;;;;;7.57;3.80;;;;;;;;;;5032901;28;20220;-72
2023/08/25 00:05:37;;;;;;;6.77;3.23;;;;;;;;;;5033120;28;20200;-72
2023/08/25 00:08:41;;;;;;;8.67;3.50;;;;;;;;;;5020878;28;20668;-72
2023/08/25 00:11:45;;;;;;;9.67;3.80;;;;;;;;;;5032687;28;20216;-72
2023/08/25 00:14:49;;;;;;;7.40;3.10;;;;;;;;;;5020752;28;20181;-72
2023/08/25 00:17:53;;;;;;;9.93;3.47;;;;;;;;;;5032972;28;20180;-72
2023/08/25 00:20:57;;;;;;;10.27;3.63;;;;;;;;;;5033228;28;20517;-72
2023/08/25 00:24:02;;;;;;;11.23;3.90;;;;;;;;;;5033206;28;20184;-72
2023/08/25 00:27:06;;;;;;;8.40;3.90;;;;;;;;;;5032640;28;20537;-72
2023/08/25 00:30:11;;;;;;;9.83;3.93;;;;;;;;;;5020592;28;20213;-72
2023/08/25 00:33:16;;;;;;;7.33;3.80;;;;;;;;;;5035596;28;20224;-72
2023/08/25 00:36:19;;;;;;;9.67;3.63;;;;;;;;;;5024054;28;20196;-72
2023/08/25 00:39:23;;;;;;;8.50;3.83;;;;;;;;;;5013282;28;20200;-72
2023/08/25 00:42:28;;;;;;;8.03;3.40;;;;;;;;;;5036020;28;20216;-72
2023/08/25 00:45:36;;;;;;;9.43;3.43;;;;;;;;;;5024483;28;20177;-72
2023/08/25 00:48:41;;;;;;;9.13;3.23;;;;;;;;;;5023992;28;20664;-72
2023/08/25 00:51:45;;;;;;;7.43;3.20;;;;;;;;;;5024086;28;20208;-72
2023/08/25 00:54:53;;;;;;;8.50;3.43;;;;;;;;;;5024286;28;20184;-72
2023/08/25 00:57:57;;;;;;;7.90;3.50;;;;;;;;;;5035248;28;20625;-72
2023/08/25 01:01:03;;;;;;;9.23;3.30;;;;;;;;;;5023862;28;20184;-72
2023/08/25 01:04:08;;;;;;;10.77;3.67;;;;;;;;;;5035763;28;20185;-72
2023/08/25 01:07:12;;;;;;;11.03;4.00;;;;;;;;;;5023801;28;20663;-72
2023/08/25 01:10:24;;;;;;;7.80;3.50;;;;;;;;;;5023578;28;20216;-72
2023/08/25 01:13:43;;;;;;;9.23;3.30;;;;;;;;;;5034682;28;20221;-72
2023/08/25 01:17:01;;;;;;;11.50;3.10;;;;;;;;;;5023329;28;20185;-72
2023/08/25 01:20:06;;;;;;;8.50;2.60;;;;;;;;;;5023257;28;20186;-72
2023/08/25 01:23:35;;;;;;;7.20;3.00;;;;;;;;;;5023212;28;20255;-71
2023/08/25 01:26:40;;;;;;;8.30;3.20;;;;;;;;;;5035622;28;20192;-72
2023/08/25 01:29:44;;;;;;;9.67;3.30;;;;;;;;;;5011754;28;20213;-72
2023/08/25 01:32:48;;;;;;;6.10;3.10;;;;;;;;;;5023022;28;20553;-72
2023/08/25 01:36:01;;;;;;;7.37;3.27;;;;;;;;;;5023065;28;20200;-72
2023/08/25 01:39:08;;;;;;;8.07;3.27;;;;;;;;;;5023389;28;20172;-72
2023/08/25 01:42:14;;;;;;;7.57;3.37;;;;;;;;;;5034253;28;20221;-72
2023/08/25 01:45:22;;;;;;;6.13;3.07;;;;;;;;;;5022602;28;20624;-72
2023/08/25 01:48:30;;;;;;;6.67;3.07;;;;;;;;;;5022960;28;20181;-72
2023/08/25 01:51:34;;;;;;;9.00;2.87;;;;;;;;;;5022956;28;20224;-72
2023/08/25 01:54:38;;;;;;;6.33;2.90;;;;;;;;;;5022731;28;20516;-72
2023/08/25 01:57:42;;;;;;;7.80;2.80;;;;;;;;;;5022530;28;20180;-72
2023/08/25 02:00:46;;;;;;;5.17;2.83;;;;;;;;;;5022837;28;20181;-72
2023/08/25 02:03:51;;;;;;;7.73;2.67;;;;;;;;;;5034930;28;20177;-72
2023/08/25 02:06:56;;;;;;;8.83;3.00;;;;;;;;;;5022671;28;20181;-72
2023/08/25 02:10:00;;;;;;;4.87;2.80;;;;;;;;;;5023106;28;20212;-72
2023/08/25 02:13:04;;;;;;;6.40;2.70;;;;;;;;;;5010962;28;20220;-72
2023/08/25 02:16:08;;;;;;;6.67;2.83;;;;;;;;;;5034968;28;20180;-72
2023/08/25 02:19:12;;;;;;;4.43;2.77;;;;;;;;;;5022441;28;20177;-72
2023/08/25 02:22:16;;;;;;;5.43;2.33;;;;;;;;;;5035064;28;20676;-72
2023/08/25 02:25:20;;;;;;;5.87;2.40;;;;;;;;;;5011054;28;20204;-72
2023/08/25 02:28:25;;;;;;;8.07;3.10;;;;;;;;;;5022162;28;20204;-72
2023/08/25 02:31:29;;;;;;;6.13;2.93;;;;;;;;;;5010726;28;20525;-72
2023/08/25 02:34:34;;;;;;;6.03;2.50;;;;;;;;;;5022017;28;20192;-72
2023/08/25 02:37:59;;;;;;;7.33;2.73;;;;;;;;;;5022162;28;20181;-72
2023/08/25 02:41:02;;;;;;;11.07;2.90;;;;;;;;;;5021971;28;20169;-72
2023/08/25 02:44:06;;;;;;;6.03;2.70;;;;;;;;;;5021857;28;20172;-72
2023/08/25 02:47:11;;;;;;;7.47;2.60;;;;;;;;;;5034140;28;20188;-72
2023/08/25 02:50:16;;;;;;;5.03;2.20;;;;;;;;;;5010353;28;20208;-72
2023/08/25 02:53:20;;;;;;;7.40;2.50;;;;;;;;;;5032703;28;20216;-72
2023/08/25 02:56:24;;;;;;;4.97;2.53;;;;;;;;;;5032879;28;20190;-72
2023/08/25 02:59:28;;;;;;;9.03;2.50;;;;;;;;;;5021775;28;20521;-72
2023/08/25 03:02:32;;;;;;;5.80;2.37;;;;;;;;;;5021333;28;20683;-72
2023/08/25 03:05:38;;;;;;;6.97;2.67;;;;;;;;;;5021769;28;20632;-72
2023/08/25 03:08:45;;;;;;;7.13;2.67;;;;;;;;;;5021436;28;20284;-72
2023/08/25 03:11:49;;;;;;;5.03;2.53;;;;;;;;;;5021236;28;20220;-72
2023/08/25 03:14:54;;;;;;;5.40;2.50;;;;;;;;;;5032829;28;20173;-72
2023/08/25 03:17:58;;;;;;;5.63;2.47;;;;;;;;;;5021821;28;20172;-72
2023/08/25 03:21:02;;;;;;;9.07;2.60;;;;;;;;;;5021432;28;20173;-72
2023/08/25 03:24:07;;;;;;;5.10;2.70;;;;;;;;;;5033252;28;20180;-72
2023/08/25 03:27:11;;;;;;;4.50;2.33;;;;;;;;;;5021550;28;20176;-72
2023/08/25 03:30:15;;;;;;;7.10;2.90;;;;;;;;;;5020957;28;20204;-72
2023/08/25 03:33:19;;;;;;;7.57;2.73;;;;;;;;;;5009719;28;20211;-72
2023/08/25 03:36:23;;;;;;;5.50;2.60;;;;;;;;;;5033104;28;20628;-72
2023/08/25 03:39:29;;;;;;;6.43;2.67;;;;;;;;;;5032576;28;20181;-72
2023/08/25 03:42:33;;;;;;;5.83;2.67;;;;;;;;;;5020943;28;20216;-72
2023/08/25 03:45:37;;;;;;;8.90;3.07;;;;;;;;;;5021142;28;20663;-72
2023/08/25 03:48:41;;;;;;;6.50;2.97;;;;;;;;;;5009972;28;20201;-72
2023/08/25 03:51:45;;;;;;;7.63;2.80;;;;;;;;;;5032286;28;20212;-72
2023/08/25 03:54:49;;;;;;;3.57;2.40;;;;;;;;;;5021128;28;20180;-72
2023/08/25 03:57:53;;;;;;;9.43;2.37;;;;;;;;;;5032994;28;20180;-72
2023/08/25 04:00:58;;;;;;;6.57;2.60;;;;;;;;;;5021015;28;20169;-72
2023/08/25 04:04:03;;;;;;;6.60;2.73;;;;;;;;;;5009322;28;20177;-72
2023/08/25 04:07:07;;;;;;;8.30;2.60;;;;;;;;;;5022529;28;20192;-72
2023/08/25 04:10:11;;;;;;;5.30;2.20;;;;;;;;;;5024771;28;20695;-72
2023/08/25 04:13:16;;;;;;;10.37;3.00;;;;;;;;;;5024811;28;20212;-72
2023/08/25 04:16:20;;;;;;;7.27;2.80;;;;;;;;;;5024466;28;20181;-72
2023/08/25 04:19:24;;;;;;;3.73;2.80;;;;;;;;;;5024425;28;20185;-72
2023/08/25 04:22:30;;;;;;;5.27;2.70;;;;;;;;;;5024526;28;20557;-71
2023/08/25 04:25:36;;;;;;;4.27;2.50;;;;;;;;;;5024653;28;20628;-72
2023/08/25 04:28:40;;;;;;;5.53;2.50;;;;;;;;;;5024310;28;20189;-72
2023/08/25 04:31:45;;;;;;;5.87;2.83;;;;;;;;;;5024220;28;20212;-71
2023/08/25 04:34:55;;;;;;;6.17;2.30;;;;;;;;;;5023609;28;20197;-74
2023/08/25 04:37:59;;;;;;;6.63;2.70;;;;;;;;;;5022410;28;20181;-71
2023/08/25 04:41:04;;;;;;;5.03;2.53;;;;;;;;;;5024297;28;20177;-73
2023/08/25 04:44:08;;;;;;;3.87;2.60;;;;;;;;;;5034928;28;20177;-72
2023/08/25 04:47:14;;;;;;;3.63;2.57;;;;;;;;;;5023898;28;20549;-72
2023/08/25 04:50:17;;;;;;;5.93;2.67;;;;;;;;;;5024022;28;20220;-72
2023/08/25 04:53:21;;;;;;;4.03;2.40;;;;;;;;;;5012630;28;20216;-72
2023/08/25 04:56:25;;;;;;;5.23;2.43;;;;;;;;;;5024112;28;20177;-71
2023/08/25 04:59:30;;;;;;;5.33;2.20;;;;;;;;;;5035198;28;20208;-71
2023/08/25 05:02:35;;;;;;;5.30;2.20;;;;;;;;;;5011415;28;20224;-71
2023/08/25 05:05:40;;;;;;;8.67;2.30;;;;;;;;;;5003908;28;20186;-72
2023/08/25 05:08:44;;;;;;;3.77;2.37;;;;;;;;;;5003779;28;20203;-72
2023/08/25 05:11:49;;;;;;;6.60;2.73;;;;;;;;;;5003546;28;20209;-72
2023/08/25 05:14:54;;;;;;;6.20;2.30;;;;;;;;;;5003689;28;20185;-72
2023/08/25 05:17:58;;;;;;;5.40;2.77;;;;;;;;;;5002394;28;20182;-71
2023/08/25 05:21:02;;;;;;;4.93;2.47;;;;;;;;;;4991980;28;20177;-72
2023/08/25 05:24:17;;;;;;;3.93;2.70;;;;;;;;;;5015673;28;20177;-72
2023/08/25 05:27:21;;;;;;;3.70;2.30;;;;;;;;;;5003638;28;20189;-72
2023/08/25 05:30:26;;;;;;;3.97;2.53;;;;;;;;;;5003322;28;20213;-71
2023/08/25 05:33:31;;;;;;;4.80;2.57;;;;;;;;;;5010745;28;20220;-72
2023/08/25 05:36:56;;;;;;;4.10;2.80;;;;;;;;;;5035117;28;20526;-72
2023/08/25 05:40:01;;;;;;;4.43;2.67;;;;;;;;;;5022994;28;20546;-72
2023/08/25 05:43:09;;;;;;;5.20;2.30;;;;;;;;;;5022790;28;20220;-72
2023/08/25 05:46:13;;;;;;;4.40;2.30;;;;;;;;;;5023138;28;20177;-72
2023/08/25 05:49:18;;;;;;;5.00;2.10;;;;;;;;;;5023147;28;20185;-72
2023/08/25 05:52:23;;;;;;;5.00;2.60;;;;;;;;;;5022675;28;20204;-72
2023/08/25 05:55:27;;;;;;;3.87;2.90;;;;;;;;;;5034316;28;20513;-72
2023/08/25 05:58:31;;;;;;;4.93;2.90;;;;;;;;;;5034761;28;20185;-71
2023/08/25 06:01:35;;;;;;;9.93;2.70;;;;;;;;;;5022318;28;20220;-72
2023/08/25 06:04:39;;;;;;;5.67;2.87;;;;;;;;;;5034505;28;20230;-71
2023/08/25 06:07:44;;;;;;;5.47;2.60;;;;;;;;;;5034752;28;20180;-72
2023/08/25 06:10:54;;;;;;;11.70;3.00;;;;;;;;;;5022498;28;20208;-72
2023/08/25 06:13:58;;;;;;;4.87;2.20;;;;;;;;;;5034722;28;20548;-72
2023/08/25 06:17:03;;;;;;;7.97;2.40;;;;;;;;;;5034537;28;20200;-72
2023/08/25 06:20:08;;;;;;;3.10;2.00;;;;;;;;;;5022048;28;20181;-72
2023/08/25 06:23:14;;;;;;;6.10;2.63;;;;;;;;;;5022203;28;20221;-72
2023/08/25 06:26:18;;;;;;;3.63;2.10;;;;;;;;;;5034059;28;20185;-71
2023/08/25 06:29:23;;;;;;;7.60;2.30;;;;;;;;;;5003738;28;20200;-71
2023/08/25 06:32:27;;;;;;;6.37;1.90;;;;;;;;;;5030341;28;20221;-71
2023/08/25 06:35:32;;;;;;;5.97;2.10;;;;;;;;;;5033861;28;20212;-71
2023/08/25 06:38:36;;;;;;;4.07;2.30;;;;;;;;;;5022052;28;20172;-71
2023/08/25 06:41:40;;;;;;;4.17;2.37;;;;;;;;;;5033818;28;20212;-72
2023/08/25 06:44:46;;;;;;;3.67;2.30;;;;;;;;;;5033209;28;20173;-71
2023/08/25 06:47:50;;;;;;;3.30;2.53;;;;;;;;;;5021896;28;20197;-71
2023/08/25 06:50:55;;;;;;;3.30;2.50;;;;;;;;;;5021410;28;20220;-71
2023/08/25 06:54:01;;;;;;;5.13;2.67;;;;;;;;;;5021868;28;20521;-71
2023/08/25 06:57:05;;;;;;;6.17;2.27;;;;;;;;;;5033888;28;20529;-72
2023/08/25 07:00:12;;;;;;;6.07;2.50;;;;;;;;;;5034115;28;20506;-71
2023/08/25 07:03:16;;;;;;;6.60;2.60;;;;;;;;;;5033335;28;20216;-71
2023/08/25 07:06:20;;;;;;;4.20;2.47;;;;;;;;;;5026629;28;20209;-71
2023/08/25 07:09:25;;;;;;;7.07;2.20;;;;;;;;;;5033728;28;20181;-71
2023/08/25 07:12:29;;;;;;;3.90;2.50;;;;;;;;;;5032871;28;20208;-71
2023/08/25 07:15:34;;;;;;;6.53;2.33;;;;;;;;;;5021248;28;20205;-72
2023/08/25 07:18:38;;;;;;;4.10;2.30;;;;;;;;;;5033311;28;20180;-71
2023/08/25 07:21:42;;;;;;;4.17;2.23;;;;;;;;;;5033214;28;20218;-72
2023/08/25 07:24:47;;;;;;;4.57;2.47;;;;;;;;;;5018480;28;20197;-71
2023/08/25 07:27:51;;;;;;;5.50;2.40;;;;;;;;;;5021364;28;20183;-71
2023/08/25 07:30:56;;;;;;;6.27;2.53;;;;;;;;;;5021296;28;20206;-72
2023/08/25 07:34:00;;;;;;;3.53;2.10;;;;;;;;;;5020925;28;20210;-71
2023/08/25 07:37:05;;;;;;;4.90;2.20;;;;;;;;;;5033398;28;20186;-72
2023/08/25 07:40:10;;;;;;;5.63;2.33;;;;;;;;;;5033367;28;20206;-72
2023/08/25 07:43:14;;;;;;;5.10;2.10;;;;;;;;;;5032960;28;20217;-71
2023/08/25 07:46:18;;;;;;;4.83;2.40;;;;;;;;;;5033311;28;20182;-72
2023/08/25 07:49:23;;;;;;;2.83;2.10;;;;;;;;;;5018513;28;20237;-72
2023/08/25 07:52:26;;;;;;;5.17;2.50;;;;;;;;;;5031464;28;20238;-72
2023/08/25 07:55:32;;;;;;;8.13;2.10;;;;;;;;;;5033346;28;20182;-72
2023/08/25 07:58:36;;;;;;;4.00;2.40;;;;;;;;;;5019750;28;20202;-72
2023/08/25 08:01:41;;;;;;;3.47;2.40;;;;;;;;;;5031226;28;20222;-72
2023/08/25 08:04:45;;;;;;;2.78;2.50;;;;;;;;;;5029944;28;20671;-72
2023/08/25 08:07:49;;;;;;;6.15;2.15;;;;;;;;;;5033105;28;20514;-73
2023/08/25 08:10:53;;;;;;;5.43;2.20;;;;;;;;;;5032959;28;20221;-73
2023/08/25 08:13:57;;;;;;;3.05;2.20;;;;;;;;;;5020114;28;20201;-72
2023/08/25 08:17:03;;;;;;;4.93;2.70;;;;;;;;;;5021711;28;20198;-72
2023/08/25 08:20:12;;;;;;;6.72;2.58;;;;;;;;;;5012208;28;20179;-73
2023/08/25 08:23:15;;;;;;;5.18;2.50;;;;;;;;;;5013420;28;20218;-72
2023/08/25 08:26:21;;;;;;;4.82;2.58;;;;;;;;;;5000919;28;20188;-72
2023/08/25 08:29:26;;;;;;;3.40;2.58;;;;;;;;;;5013201;28;20177;-72
2023/08/25 08:32:30;;;;;;;3.80;2.63;;;;;;;;;;5013120;28;20709;-73
2023/08/25 08:35:34;;;;;;;4.50;2.22;;;;;;;;;;5021638;28;20216;-72
2023/08/25 08:38:38;;;;;;;5.50;2.60;;;;;;;;;;5020313;28;20199;-72
2023/08/25 08:41:44;;;;;;;5.75;2.60;;;;;;;;;;5032109;28;20215;-72
2023/08/25 08:44:49;;;;;;;4.78;2.47;;;;;;;;;;5029791;28;20202;-72
2023/08/25 08:47:53;;;;;;;3.63;2.40;;;;;;;;;;5016934;28;20287;-72
2023/08/25 08:50:58;;;;;;;3.15;2.30;;;;;;;;;;5032549;28;20223;-73
2023/08/25 08:54:06;;;;;;;3.85;2.53;;;;;;;;;;5034973;28;20622;-72
2023/08/25 08:57:11;;;;;;;4.07;2.58;;;;;;;;;;5024425;28;20197;-73
2023/08/25 09:00:18;;;;;;;6.85;2.40;;;;;;;;;;5036463;28;20198;-72
2023/08/25 09:03:26;;;;;;;2.83;2.53;;;;;;;;;;5023953;28;20223;-72
2023/08/25 09:06:35;;;;;;;5.57;2.65;;;;;;;;;;5035648;28;20200;-72
2023/08/25 09:09:40;;;;;;;4.70;2.80;;;;;;;;;;5024467;28;20514;-72
2023/08/25 09:12:44;;;;;;;5.70;2.70;;;;;;;;;;5036275;28;20236;-72
2023/08/25 09:15:51;;;;;;;3.87;2.43;;;;;;;;;;5035902;28;20655;-72
2023/08/25 09:18:59;;;;;;;5.07;3.30;;;;;;;;;;5036258;28;20181;-73
2023/08/25 09:22:03;;;;;;;4.67;2.70;;;;;;;;;;5036328;28;20218;-73
2023/08/25 09:25:08;;;;;;;4.87;2.70;;;;;;;;;;5023724;28;20178;-72
2023/08/25 09:28:13;;;;;;;5.20;2.83;;;;;;;;;;5015926;28;20666;-72
2023/08/25 09:31:22;;;;;;;4.60;3.10;;;;;;;;;;5015786;28;20560;-73
2023/08/25 09:34:26;;;;;;;5.60;3.37;;;;;;;;;;5018348;28;20213;-72
2023/08/25 09:37:40;;;;;;;5.63;3.20;;;;;;;;;;5021340;28;20188;-73
2023/08/25 09:40:46;;;;;;;7.10;3.17;;;;;;;;;;5035385;28;20210;-73
2023/08/25 09:43:55;;;;;;;5.60;2.80;;;;;;;;;;5035666;28;20544;-72
2023/08/25 09:47:01;;;;;;;8.00;4.17;;;;;;;;;;5035448;28;20202;-73
2023/08/25 09:50:05;;;;;;;3.77;3.10;;;;;;;;;;5035443;28;20204;-72
2023/08/25 09:53:12;;;;;;;4.77;2.70;;;;;;;;;;5035439;28;20210;-73
2023/08/25 09:56:17;;;;;;;8.70;3.00;;;;;;;;;;5034807;28;20180;-73
2023/08/25 09:59:21;;;;;;;3.47;2.65;;;;;;;;;;5035036;28;20187;-74
2023/08/25 10:02:25;;;;;;;6.35;2.83;;;;;;;;;;5035325;28;20220;-73
2023/08/25 10:05:32;;;;;;;6.60;2.78;;;;;;;;;;5021792;28;20188;-73
2023/08/25 10:08:36;;;;;;;6.28;2.90;;;;;;;;;;5034589;28;20196;-73
2023/08/25 10:11:44;;;;;;;5.95;3.13;;;;;;;;;;5034443;28;20228;-73
2023/08/25 10:14:52;;;;;;;3.95;2.50;;;;;;;;;;5022626;28;20643;-73
2023/08/25 10:18:06;;;;;;;4.53;2.47;;;;;;;;;;5034423;28;20181;-74
2023/08/25 10:21:13;;;;;;;4.00;2.90;;;;;;;;;;5022604;28;20177;-73
2023/08/25 10:24:19;;;;;;;5.22;3.08;;;;;;;;;;5034861;28;20182;-73
2023/08/25 10:27:24;;;;;;;4.35;2.75;;;;;;;;;;5033430;28;20199;-73
2023/08/25 10:30:29;;;;;;;3.15;2.33;;;;;;;;;;5022209;28;20183;-72
2023/08/25 10:33:50;;;;;;;3.78;2.72;;;;;;;;;;5033960;28;20218;-72
2023/08/25 10:37:05;;;;;;;5.63;2.78;;;;;;;;;;5034103;28;20197;-73
2023/08/25 10:40:10;;;;;;;5.00;2.65;;;;;;;;;;5034189;28;20195;-73
2023/08/25 10:43:15;;;;;;;5.72;2.45;;;;;;;;;;5033776;28;20262;-72
2023/08/25 10:46:22;;;;;;;4.57;2.25;;;;;;;;;;5034121;28;20182;-73
2023/08/25 10:49:26;;;;;;;4.75;2.55;;;;;;;;;;5013198;28;20545;-73
2023/08/25 10:52:31;;;;;;;4.38;2.67;;;;;;;;;;5014319;28;20234;-73
2023/08/25 10:55:37;;;;;;;7.82;2.78;;;;;;;;;;5014291;28;20182;-73
2023/08/25 10:58:41;;;;;;;8.93;2.30;;;;;;;;;;5013083;28;20544;-73
2023/08/25 11:01:58;;;;;;;3.58;2.22;;;;;;;;;;5013082;28;20215;-73
2023/08/25 11:05:33;;;;;;;2.63;2.30;;;;;;;;;;5014115;28;20180;-74
2023/08/25 11:08:42;;;;;;;9.55;2.83;;;;;;;;;;5014363;28;20180;-74
2023/08/25 11:11:56;;;;;;;2.80;2.17;;;;;;;;;;5013730;28;20221;-74
2023/08/25 11:15:00;;;;;;;4.40;2.08;;;;;;;;;;5013075;28;20189;-74
2023/08/25 11:18:04;;;;;;;4.60;2.40;;;;;;;;;;5012901;28;20178;-74
2023/08/25 11:21:09;;;;;;;3.50;2.00;;;;;;;;;;5014433;28;20237;-74
2023/08/25 11:24:25;;;;;;;3.88;2.50;;;;;;;;;;5013549;28;20182;-74
2023/08/25 11:27:29;;;;;;;2.45;1.85;;;;;;;;;;5013735;28;20182;-74
2023/08/25 11:30:37;;;;;;;3.97;2.20;;;;;;;;;;5013650;28;20197;-74
2023/08/25 11:33:43;;;;;;;4.15;2.22;;;;;;;;;;5014295;28;20218;-74
2023/08/25 11:36:47;;;;;;;5.07;2.15;;;;;;;;;;5013711;28;20174;-74
2023/08/25 11:39:51;;;;;;;2.47;2.08;;;;;;;;;;5012855;28;20182;-74
2023/08/25 11:42:56;;;;;;;3.90;2.00;;;;;;;;;;5012697;28;20206;-74
2023/08/25 11:46:00;;;;;;;2.70;1.73;;;;;;;;;;5012839;28;20185;-75
2023/08/25 11:49:06;;;;;;;2.35;1.85;;;;;;;;;;5013477;28;20178;-75
2023/08/25 11:52:10;;;;;;;3.90;1.88;;;;;;;;;;5013136;28;20222;-74
2023/08/25 11:55:15;;;;;;;3.78;2.33;;;;;;;;;;5013529;28;20182;-74
2023/08/25 11:58:19;;;;;;;3.05;2.10;;;;;;;;;;5013490;28;20182;-74
2023/08/25 12:01:30;;;;;;;2.97;2.00;;;;;;;;;;5013369;28;20178;-74
2023/08/25 12:04:34;;;;;;;2.67;2.40;;;;;;;;;;5012695;28;20186;-74
2023/08/25 12:07:38;;;;;;;3.05;2.05;;;;;;;;;;5013367;28;20182;-74
2023/08/25 12:10:42;;;;;;;4.47;1.90;;;;;;;;;;5013394;28;20182;-74
2023/08/25 12:13:47;;;;;;;3.63;1.70;;;;;;;;;;5013195;28;20205;-74
2023/08/25 12:16:51;;;;;;;4.38;1.80;;;;;;;;;;5013417;28;20193;-75
2023/08/25 12:19:56;;;;;;;3.78;2.20;;;;;;;;;;5013045;28;20190;-75
2023/08/25 12:23:00;;;;;;;7.22;2.50;;;;;;;;;;5012415;28;20217;-74
2023/08/25 12:26:13;;;;;;;3.72;2.22;;;;;;;;;;5012608;28;20185;-75
2023/08/25 12:29:20;;;;;;;5.15;1.88;;;;;;;;;;5016355;28;20186;-74
2023/08/25 12:32:26;;;;;;;4.40;2.13;;;;;;;;;;5017055;28;20229;-74
2023/08/25 12:35:31;;;;;;;2.33;1.83;;;;;;;;;;5015865;28;20209;-74
2023/08/25 12:38:35;;;;;;;2.03;1.73;;;;;;;;;;5016820;28;20630;-75
2023/08/25 12:41:39;;;;;;;2.63;1.83;;;;;;;;;;5016872;28;20217;-75
2023/08/25 12:44:43;;;;;;;8.75;3.35;;;;;;;;;;5016696;28;20182;-75
2023/08/25 12:47:47;;;;;;;2.22;1.88;;;;;;;;;;5016357;28;20544;-75
2023/08/25 12:50:52;;;;;;;2.75;1.60;;;;;;;;;;5016901;28;20181;-75
2023/08/25 12:53:56;;;;;;;5.40;1.90;;;;;;;;;;5016522;28;20672;-74
2023/08/25 12:57:00;;;;;;;8.63;2.38;;;;;;;;;;5016448;28;20630;-74
2023/08/25 13:00:05;;;;;;;2.75;1.80;;;;;;;;;;5016422;28;20178;-74
2023/08/25 13:03:10;;;;;;;2.05;1.73;;;;;;;;;;5015047;28;20214;-74
2023/08/25 13:06:15;;;;;;;2.58;1.55;;;;;;;;;;5016266;28;20193;-74
2023/08/25 13:09:20;;;;;;;2.13;1.58;;;;;;;;;;5016111;28;20178;-74
2023/08/25 13:12:24;;;;;;;2.40;1.60;;;;;;;;;;5014817;28;20225;-74
2023/08/25 13:15:28;;;;;;;2.45;1.58;;;;;;;;;;5015221;28;20201;-74
2023/08/25 13:18:32;;;;;;;3.85;1.50;;;;;;;;;;5016078;28;20520;-74
2023/08/25 13:21:36;;;;;;;5.38;1.80;;;;;;;;;;5016080;28;20217;-74
2023/08/25 13:24:41;;;;;;;2.83;1.80;;;;;;;;;;5015746;28;20166;-74
2023/08/25 13:27:45;;;;;;;3.45;1.88;;;;;;;;;;5015434;28;20178;-74
2023/08/25 13:30:49;;;;;;;3.92;2.05;;;;;;;;;;5015454;28;20641;-74
2023/08/25 13:33:55;;;;;;;2.72;1.80;;;;;;;;;;5015740;28;20209;-74
2023/08/25 13:36:59;;;;;;;4.30;2.33;;;;;;;;;;5015536;28;20182;-74
2023/08/25 13:40:04;;;;;;;5.78;2.22;;;;;;;;;;5014111;28;20182;-74
2023/08/25 13:43:10;;;;;;;2.67;2.25;;;;;;;;;;5015547;28;20214;-74
2023/08/25 13:46:16;;;;;;;4.47;2.30;;;;;;;;;;5015358;28;20212;-74
2023/08/25 13:49:20;;;;;;;3.97;2.50;;;;;;;;;;5015259;28;20185;-74
2023/08/25 13:52:23;;;;;;;4.88;2.20;;;;;;;;;;5014455;28;20225;-74
2023/08/25 13:55:27;;;;;;;4.68;2.30;;;;;;;;;;5014963;28;20176;-74
2023/08/25 13:58:31;;;;;;;4.22;2.60;;;;;;;;;;5014314;28;20184;-74
2023/08/25 14:01:35;;;;;;;4.00;2.42;;;;;;;;;;5014841;28;20180;-74
2023/08/25 14:04:39;;;;;;;5.05;2.30;;;;;;;;;;5013934;28;20200;-74
2023/08/25 14:07:44;;;;;;;3.67;2.10;;;;;;;;;;5014673;28;20194;-74
2023/08/25 14:10:48;;;;;;;5.03;2.30;;;;;;;;;;5014060;28;20200;-74
2023/08/25 14:13:52;;;;;;;4.55;2.25;;;;;;;;;;5015058;28;20211;-74
2023/08/25 14:16:56;;;;;;;3.47;2.15;;;;;;;;;;5014952;28;20537;-74
2023/08/25 14:20:01;;;;;;;7.25;2.47;;;;;;;;;;5014822;28;20522;-74
2023/08/25 14:23:05;;;;;;;9.95;3.45;;;;;;;;;;5014352;28;20209;-74
2023/08/25 14:26:09;;;;;;;3.97;2.45;;;;;;;;;;5014440;28;20196;-74
2023/08/25 14:29:13;;;;;;;5.30;2.20;;;;;;;;;;5014254;28;20196;-74
2023/08/25 14:32:18;;;;;;;5.93;2.45;;;;;;;;;;5014667;28;20553;-73
2023/08/25 14:35:21;;;;;;;3.85;2.40;;;;;;;;;;5014435;28;20204;-73
2023/08/25 14:38:26;;;;;;;5.40;2.03;;;;;;;;;;5014451;28;20179;-73
2023/08/25 14:41:30;;;;;;;3.03;1.95;;;;;;;;;;5014354;28;20183;-73
2023/08/25 14:44:34;;;;;;;4.68;2.13;;;;;;;;;;5014602;28;20521;-73
2023/08/25 14:47:39;;;;;;;3.53;2.40;;;;;;;;;;5014753;28;20627;-74
2023/08/25 14:50:54;;;;;;;7.25;2.20;;;;;;;;;;5013815;28;20182;-74
2023/08/25 14:53:59;;;;;;;3.45;2.20;;;;;;;;;;5014294;28;20209;-74
2023/08/25 14:57:04;;;;;;;3.58;2.03;;;;;;;;;;5014050;28;20541;-74
2023/08/25 15:00:09;;;;;;;3.25;2.15;;;;;;;;;;5013948;28;20176;-74
2023/08/25 15:03:14;;;;;;;3.20;2.05;;;;;;;;;;5013894;28;20220;-74
2023/08/25 15:06:18;;;;;;;3.63;2.03;;;;;;;;;;5013827;28;20518;-74
2023/08/25 15:09:22;;;;;;;4.38;2.20;;;;;;;;;;5013756;28;20203;-73
2023/08/25 15:12:28;;;;;;;4.45;2.67;;;;;;;;;;5013580;28;20224;-73
2023/08/25 15:15:33;;;;;;;5.07;2.42;;;;;;;;;;5013933;28;20187;-73
2023/08/25 15:18:37;;;;;;;3.88;2.25;;;;;;;;;;5013539;28;20191;-74
2023/08/25 15:21:42;;;;;;;2.85;2.55;;;;;;;;;;5013522;28;20213;-73
2023/08/25 15:24:46;;;;;;;5.30;2.50;;;;;;;;;;5013841;28;20172;-74
2023/08/25 15:27:50;;;;;;;3.63;2.38;;;;;;;;;;5013534;28;20184;-73
2023/08/25 15:31:11;;;;;;;7.45;2.65;;;;;;;;;;5012789;28;20179;-74
2023/08/25 15:34:15;;;;;;;6.03;2.50;;;;;;;;;;5013592;28;20569;-74
2023/08/25 15:37:19;;;;;;;2.67;2.47;;;;;;;;;;5012872;28;20185;-73
2023/08/25 15:40:23;;;;;;;5.35;2.65;;;;;;;;;;5012844;28;20640;-74
2023/08/25 15:43:27;;;;;;;5.90;2.60;;;;;;;;;;5013364;28;20717;-73
2023/08/25 15:46:31;;;;;;;3.10;2.30;;;;;;;;;;5013376;28;20181;-74
2023/08/25 15:49:35;;;;;;;6.40;2.53;;;;;;;;;;5012411;28;20187;-73
2023/08/25 15:52:39;;;;;;;5.45;2.53;;;;;;;;;;5001401;28;20224;-74
2023/08/25 15:55:43;;;;;;;5.90;3.05;;;;;;;;;;5013181;28;20187;-74
2023/08/25 15:58:47;;;;;;;3.95;2.67;;;;;;;;;;5012553;28;20180;-73
2023/08/25 16:01:52;;;;;;;4.57;2.90;;;;;;;;;;5012626;28;20524;-74
2023/08/25 16:04:56;;;;;;;2.78;2.53;;;;;;;;;;5017267;28;20184;-74
2023/08/25 16:08:01;;;;;;;4.43;3.00;;;;;;;;;;5016947;28;20533;-73
2023/08/25 16:11:07;;;;;;;4.95;3.58;;;;;;;;;;5016314;28;20631;-73
2023/08/25 16:14:12;;;;;;;3.42;2.90;;;;;;;;;;5016268;28;20223;-74
2023/08/25 16:17:16;;;;;;;5.38;2.70;;;;;;;;;;5016960;28;20186;-73
2023/08/25 16:20:20;;;;;;;3.28;2.70;;;;;;;;;;5016910;28;20184;-73
2023/08/25 16:23:24;;;;;;;3.53;2.80;;;;;;;;;;5016713;28;20218;-73
2023/08/25 16:26:29;;;;;;;3.88;3.00;;;;;;;;;;5016093;28;20183;-74
2023/08/25 16:29:35;;;;;;;4.03;2.92;;;;;;;;;;5016800;28;20179;-74
2023/08/25 16:32:41;;;;;;;6.63;3.17;;;;;;;;;;5016692;28;20699;-74
2023/08/25 16:35:45;;;;;;;4.50;2.88;;;;;;;;;;5016515;28;20202;-74
2023/08/25 16:38:49;;;;;;;3.40;3.10;;;;;;;;;;5016481;28;20183;-73
2023/08/25 16:41:53;;;;;;;3.78;2.90;;;;;;;;;;5016834;28;20214;-74
2023/08/25 16:44:57;;;;;;;4.70;3.03;;;;;;;;;;5015630;28;20184;-74
2023/08/25 16:48:05;;;;;;;3.92;3.03;;;;;;;;;;5021018;28;20201;-73
2023/08/25 16:51:10;;;;;;;7.28;2.95;;;;;;;;;;5036306;28;20180;-74
2023/08/25 16:54:14;;;;;;;5.45;3.15;;;;;;;;;;5023697;28;20207;-74
2023/08/25 16:57:18;;;;;;;4.43;2.90;;;;;;;;;;5036096;28;20532;-73
2023/08/25 17:00:22;;;;;;;4.30;2.67;;;;;;;;;;5036568;28;20183;-73
2023/08/25 17:03:29;;;;;;;6.18;3.03;;;;;;;;;;5023850;28;20213;-73
2023/08/25 17:06:33;;;;;;;6.22;3.17;;;;;;;;;;5012625;28;20183;-73
2023/08/25 17:09:38;;;;;;;5.07;3.08;;;;;;;;;;5035644;28;20184;-73
2023/08/25 17:12:42;;;;;;;6.80;3.30;;;;;;;;;;5012092;28;20215;-73
2023/08/25 17:15:46;;;;;;;7.35;3.20;;;;;;;;;;5023773;28;20177;-74
2023/08/25 17:18:50;;;;;;;15.00;5.13;;;;;;;;;;5035617;28;20187;-74
2023/08/25 17:21:54;;;;;;;3.58;2.88;;;;;;;;;;5035797;28;20218;-74
2023/08/25 17:24:58;;;;;;;3.40;3.10;;;;;;;;;;5023549;28;20174;-74
2023/08/25 17:28:03;;;;;;;4.57;3.20;;;;;;;;;;5035835;28;20624;-74
2023/08/25 17:31:09;;;;;;;7.22;3.40;;;;;;;;;;5023241;28;20649;-74
2023/08/25 17:34:13;;;;;;;4.45;3.22;;;;;;;;;;5023174;28;20221;-74
2023/08/25 17:37:16;;;;;;;6.63;3.70;;;;;;;;;;5022934;28;20183;-74
2023/08/25 17:40:21;;;;;;;4.20;3.10;;;;;;;;;;5035582;28;20181;-74
2023/08/25 17:43:25;;;;;;;3.80;3.22;;;;;;;;;;5035255;28;20693;-74
2023/08/25 17:46:29;;;;;;;5.77;3.30;;;;;;;;;;5035470;28;20185;-74
2023/08/25 17:49:33;;;;;;;5.07;3.20;;;;;;;;;;5022903;28;20177;-73
2023/08/25 17:52:37;;;;;;;5.50;3.50;;;;;;;;;;5034812;28;20319;-74
2023/08/25 17:55:41;;;;;;;10.07;3.50;;;;;;;;;;5035008;28;20173;-73
2023/08/25 17:58:46;;;;;;;5.68;3.50;;;;;;;;;;5022666;28;20193;-74
2023/08/25 18:01:50;;;;;;;5.33;3.43;;;;;;;;;;5022617;28;20225;-75
2023/08/25 18:04:54;;;;;;;4.90;3.37;;;;;;;;;;5022763;28;20521;-75
2023/08/25 18:07:59;;;;;;;4.73;3.60;;;;;;;;;;5023195;28;20184;-75
2023/08/25 18:11:03;;;;;;;6.27;3.87;;;;;;;;;;5034708;28;20631;-74
2023/08/25 18:14:07;;;;;;;9.33;4.13;;;;;;;;;;5034582;28;20210;-73
2023/08/25 18:17:11;;;;;;;5.87;3.60;;;;;;;;;;5022232;28;20183;-73
2023/08/25 18:20:15;;;;;;;9.10;3.73;;;;;;;;;;5022452;28;20511;-74
2023/08/25 18:23:19;;;;;;;6.90;3.10;;;;;;;;;;5034101;28;20696;-73
2023/08/25 18:26:24;;;;;;;6.17;3.90;;;;;;;;;;5033986;28;20186;-73
2023/08/25 18:29:28;;;;;;;6.27;3.70;;;;;;;;;;5034420;28;20650;-73
2023/08/25 18:32:32;;;;;;;5.87;3.73;;;;;;;;;;5010770;28;20217;-74